Time,TemperatureF,DewpointF,PressureIn,WindDirection,WindDirectionDegrees,WindSpeedMPH,WindSpeedGustMPH,Humidity,HourlyPrecipIn,Conditions,Clouds,dailyrainin,SoftwareType,DateUTC
2013-04-19 00:07:00,74.3,65.0,29.66,SSE,155,13.0,-999.0,73,-99.99,,,0.00,weatherlink.com 1.10,2013-04-19 05:07:00,
2013-04-19 00:23:00,74.2,65.0,29.66,SSE,158,7.0,-999.0,73,-99.99,,,0.00,weatherlink.com 1.10,2013-04-19 05:23:00,
2013-04-19 00:37:00,74.0,65.0,29.66,South,188,9.0,-999.0,73,-99.99,,,0.00,weatherlink.com 1.10,2013-04-19 05:37:00,
2013-04-19 00:52:00,73.9,65.0,29.66,SSW,192,14.0,-999.0,74,-99.99,,,0.00,weatherlink.com 1.10,2013-04-19 05:52:00,
2013-04-19 01:07:00,73.7,65.0,29.67,ESE,120,8.0,-999.0,74,-99.99,,,0.00,weatherlink.com 1.10,2013-04-19 06:07:00,
2013-04-19 01:22:00,73.6,65.0,29.67,SSW,194,8.0,-999.0,74,-99.99,,,0.00,weatherlink.com 1.10,2013-04-19 06:22:00,
2013-04-19 01:37:00,73.5,65.0,29.66,SE,143,16.0,-999.0,75,-99.99,,,0.00,weatherlink.com 1.10,2013-04-19 06:37:00,
2013-04-19 01:52:00,73.1,65.0,29.64,ESE,120,12.0,-999.0,76,-99.99,,,0.00,weatherlink.com 1.10,2013-04-19 06:52:00,
2013-04-19 02:07:00,73.2,65.0,29.64,SSW,205,10.0,-999.0,76,-99.99,,,0.00,weatherlink.com 1.10,2013-04-19 07:07:00,
2013-04-19 02:22:00,72.1,66.0,29.62,SSW,206,12.0,-999.0,80,-99.99,,,0.00,weatherlink.com 1.10,2013-04-19 07:22:00,
2013-04-19 02:37:00,70.5,66.0,29.62,SSE,148,5.0,-999.0,85,-99.99,,,0.02,weatherlink.com 1.10,2013-04-19 07:37:00,
2013-04-19 02:52:00,66.2,62.0,29.66,WSW,249,4.0,-999.0,87,-99.99,,,0.26,weatherlink.com 1.10,2013-04-19 07:52:00,
2013-04-19 03:08:00,62.7,60.0,29.68,SSW,210,7.0,-999.0,91,-99.99,,,0.39,weatherlink.com 1.10,2013-04-19 08:08:00,
2013-04-19 03:22:00,61.6,59.0,29.68,WSW,257,6.0,-999.0,92,-99.99,,,0.47,weatherlink.com 1.10,2013-04-19 08:22:00,
2013-04-19 03:37:00,61.0,59.0,29.70,SW,235,6.0,-999.0,93,-99.99,,,0.57,weatherlink.com 1.10,2013-04-19 08:37:00,
2013-04-19 03:52:00,59.4,57.0,29.73,WNW,283,7.0,-999.0,91,-99.99,,,0.68,weatherlink.com 1.10,2013-04-19 08:52:00,
2013-04-19 04:07:00,57.0,55.0,29.72,West,277,0.0,-999.0,91,-99.99,,,0.75,weatherlink.com 1.10,2013-04-19 09:07:00,
2013-04-19 04:22:00,56.2,54.0,29.71,West,281,0.0,-999.0,92,-99.99,,,0.82,weatherlink.com 1.10,2013-04-19 09:22:00,
2013-04-19 04:37:00,56.0,54.0,29.74,WSW,246,7.0,-999.0,93,-99.99,,,0.88,weatherlink.com 1.10,2013-04-19 09:37:00,
2013-04-19 04:52:00,55.2,53.0,29.74,West,263,9.0,-999.0,93,-99.99,,,0.96,weatherlink.com 1.10,2013-04-19 09:52:00,
2013-04-19 05:07:00,54.7,53.0,29.74,West,262,5.0,-999.0,93,-99.99,,,1.04,weatherlink.com 1.10,2013-04-19 10:07:00,
2013-04-19 05:22:00,54.0,52.0,29.77,West,259,8.0,-999.0,93,-99.99,,,1.06,weatherlink.com 1.10,2013-04-19 10:22:00,
2013-04-19 05:37:00,53.2,50.0,29.76,NW,321,9.0,-999.0,90,-99.99,,,1.06,weatherlink.com 1.10,2013-04-19 10:37:00,
2013-04-19 05:53:00,52.7,50.0,29.79,NW,308,10.0,-999.0,91,-99.99,,,1.10,weatherlink.com 1.10,2013-04-19 10:53:00,
2013-04-19 06:07:00,51.6,49.0,29.80,West,278,12.0,-999.0,91,-99.99,,,1.10,weatherlink.com 1.10,2013-04-19 11:07:00,
2013-04-19 06:22:00,51.5,49.0,29.79,WNW,292,4.0,-999.0,91,-99.99,,,1.10,weatherlink.com 1.10,2013-04-19 11:22:00,
2013-04-19 06:37:00,51.3,49.0,29.79,NW,317,0.0,-999.0,91,-99.99,,,1.10,weatherlink.com 1.10,2013-04-19 11:37:00,
2013-04-19 06:52:00,50.8,49.0,29.83,West,272,4.0,-999.0,92,-99.99,,,1.13,weatherlink.com 1.10,2013-04-19 11:52:00,
2013-04-19 07:07:00,50.1,48.0,29.83,West,275,13.0,-999.0,92,-99.99,,,1.14,weatherlink.com 1.10,2013-04-19 12:07:00,
2013-04-19 07:22:00,49.4,47.0,29.83,WNW,287,7.0,-999.0,91,-99.99,,,1.14,weatherlink.com 1.10,2013-04-19 12:22:00,
2013-04-19 07:37:00,48.5,45.0,29.84,NW,306,8.0,-999.0,88,-99.99,,,1.14,weatherlink.com 1.10,2013-04-19 12:37:00,
2013-04-19 07:52:00,48.4,46.0,29.85,West,261,7.0,-999.0,90,-99.99,,,1.14,weatherlink.com 1.10,2013-04-19 12:52:00,
2013-04-19 08:07:00,48.4,46.0,29.84,WNW,294,6.0,-999.0,91,-99.99,,,1.14,weatherlink.com 1.10,2013-04-19 13:07:00,
2013-04-19 08:22:00,48.1,45.0,29.86,NW,319,8.0,-999.0,90,-99.99,,,1.14,weatherlink.com 1.10,2013-04-19 13:22:00,
2013-04-19 08:38:00,47.9,46.0,29.87,West,277,7.0,-999.0,92,-99.99,,,1.14,weatherlink.com 1.10,2013-04-19 13:38:00,
2013-04-19 08:52:00,47.0,45.0,29.88,West,264,4.0,-999.0,92,-99.99,,,1.14,weatherlink.com 1.10,2013-04-19 13:52:00,
2013-04-19 09:07:00,46.4,44.0,29.89,SW,220,7.0,-999.0,92,-99.99,,,1.14,weatherlink.com 1.10,2013-04-19 14:07:00,
2013-04-19 09:22:00,46.1,44.0,29.90,WNW,300,6.0,-999.0,91,-99.99,,,1.14,weatherlink.com 1.10,2013-04-19 14:22:00,
2013-04-19 09:38:00,45.7,43.0,29.91,West,267,9.0,-999.0,91,-99.99,,,1.14,weatherlink.com 1.10,2013-04-19 14:38:00,
2013-04-19 09:52:00,45.6,43.0,29.91,WNW,289,10.0,-999.0,91,-99.99,,,1.14,weatherlink.com 1.10,2013-04-19 14:52:00,
2013-04-19 10:07:00,45.6,43.0,29.92,West,274,6.0,-999.0,90,-99.99,,,1.14,weatherlink.com 1.10,2013-04-19 15:07:00,
2013-04-19 10:22:00,45.2,42.0,29.95,WNW,298,8.0,-999.0,89,-99.99,,,1.14,weatherlink.com 1.10,2013-04-19 15:22:00,
2013-04-19 10:37:00,44.9,42.0,29.94,WNW,290,3.0,-999.0,90,-99.99,,,1.14,weatherlink.com 1.10,2013-04-19 15:37:00,
2013-04-19 10:52:00,45.2,42.0,29.96,WSW,258,1.0,-999.0,89,-99.99,,,1.14,weatherlink.com 1.10,2013-04-19 15:52:00,
2013-04-19 11:07:00,45.5,42.0,29.94,WNW,300,4.0,-999.0,88,-99.99,,,1.14,weatherlink.com 1.10,2013-04-19 16:07:00,
2013-04-19 11:23:00,45.4,42.0,29.94,WNW,285,6.0,-999.0,87,-99.99,,,1.14,weatherlink.com 1.10,2013-04-19 16:23:00,
2013-04-19 11:37:00,45.3,41.0,29.95,West,267,10.0,-999.0,86,-99.99,,,1.14,weatherlink.com 1.10,2013-04-19 16:37:00,
2013-04-19 11:52:00,46.1,42.0,29.94,West,277,5.0,-999.0,84,-99.99,,,1.14,weatherlink.com 1.10,2013-04-19 16:52:00,
2013-04-19 12:07:00,46.5,41.0,29.95,WNW,296,0.0,-999.0,82,-99.99,,,1.14,weatherlink.com 1.10,2013-04-19 17:07:00,
2013-04-19 12:22:00,47.2,40.0,29.95,WSW,257,0.0,-999.0,77,-99.99,,,1.14,weatherlink.com 1.10,2013-04-19 17:22:00,
2013-04-19 12:37:00,47.7,41.0,29.94,West,260,10.0,-999.0,78,-99.99,,,1.14,weatherlink.com 1.10,2013-04-19 17:37:00,
2013-04-19 12:52:00,48.1,41.0,29.94,West,259,10.0,-999.0,75,-99.99,,,1.14,weatherlink.com 1.10,2013-04-19 17:52:00,
2013-04-19 13:07:00,48.2,41.0,29.95,West,273,1.0,-999.0,75,-99.99,,,1.14,weatherlink.com 1.10,2013-04-19 18:07:00,
2013-04-19 13:22:00,48.5,41.0,29.94,WNW,299,8.0,-999.0,75,-99.99,,,1.14,weatherlink.com 1.10,2013-04-19 18:22:00,
2013-04-19 13:37:00,48.2,40.0,29.94,West,271,2.0,-999.0,73,-99.99,,,1.14,weatherlink.com 1.10,2013-04-19 18:37:00,
2013-04-19 13:52:00,48.1,41.0,29.96,WSW,242,13.0,-999.0,75,-99.99,,,1.14,weatherlink.com 1.10,2013-04-19 18:52:00,
2013-04-19 14:08:00,48.5,39.0,29.96,WNW,290,11.0,-999.0,70,-99.99,,,1.14,weatherlink.com 1.10,2013-04-19 19:08:00,
2013-04-19 14:22:00,49.2,40.0,29.96,West,259,7.0,-999.0,71,-99.99,,,1.14,weatherlink.com 1.10,2013-04-19 19:22:00,
2013-04-19 14:37:00,49.2,39.0,29.96,NW,305,9.0,-999.0,68,-99.99,,,1.14,weatherlink.com 1.10,2013-04-19 19:37:00,
2013-04-19 14:52:00,50.0,39.0,29.94,NW,304,4.0,-999.0,66,-99.99,,,1.14,weatherlink.com 1.10,2013-04-19 19:52:00,
2013-04-19 15:07:00,50.4,39.0,29.94,West,260,7.0,-999.0,65,-99.99,,,1.14,weatherlink.com 1.10,2013-04-19 20:07:00,
2013-04-19 15:22:00,50.4,39.0,29.95,West,265,9.0,-999.0,65,-99.99,,,1.14,weatherlink.com 1.10,2013-04-19 20:22:00,
2013-04-19 15:37:00,50.3,39.0,29.94,NW,324,10.0,-999.0,65,-99.99,,,1.14,weatherlink.com 1.10,2013-04-19 20:37:00,
2013-04-19 15:52:00,50.3,39.0,29.93,West,278,9.0,-999.0,65,-99.99,,,1.14,weatherlink.com 1.10,2013-04-19 20:52:00,
2013-04-19 16:07:00,51.3,40.0,29.93,WNW,295,6.0,-999.0,65,-99.99,,,1.14,weatherlink.com 1.10,2013-04-19 21:07:00,
2013-04-19 16:22:00,51.2,38.0,29.93,NW,316,6.0,-999.0,62,-99.99,,,1.14,weatherlink.com 1.10,2013-04-19 21:22:00,
2013-04-19 16:37:00,51.9,39.0,29.94,WSW,251,14.0,-999.0,61,-99.99,,,1.14,weatherlink.com 1.10,2013-04-19 21:37:00,
2013-04-19 16:53:00,53.1,38.0,29.94,NNW,347,2.0,-999.0,58,-99.99,,,1.14,weatherlink.com 1.10,2013-04-19 21:53:00,
2013-04-19 17:07:00,53.2,38.0,29.95,WNW,285,6.0,-999.0,57,-99.99,,,1.14,weatherlink.com 1.10,2013-04-19 22:07:00,
2013-04-19 17:22:00,52.6,38.0,29.95,West,280,7.0,-999.0,58,-99.99,,,1.14,weatherlink.com 1.10,2013-04-19 22:22:00,
2013-04-19 17:37:00,53.2,38.0,29.95,WSW,252,11.0,-999.0,56,-99.99,,,1.14,weatherlink.com 1.10,2013-04-19 22:37:00,
2013-04-19 17:52:00,52.7,37.0,29.96,West,271,4.0,-999.0,55,-99.99,,,1.14,weatherlink.com 1.10,2013-04-19 22:52:00,
2013-04-19 18:07:00,52.1,37.0,29.96,West,263,8.0,-999.0,57,-99.99,,,1.14,weatherlink.com 1.10,2013-04-19 23:07:00,
2013-04-19 18:22:00,51.8,39.0,29.97,NW,304,10.0,-999.0,61,-99.99,,,1.14,weatherlink.com 1.10,2013-04-19 23:22:00,
2013-04-19 18:37:00,51.9,39.0,29.96,NW,306,9.0,-999.0,61,-99.99,,,1.14,weatherlink.com 1.10,2013-04-19 23:37:00,
2013-04-19 18:52:00,51.7,39.0,29.96,NNW,327,8.0,-999.0,62,-99.99,,,1.14,weatherlink.com 1.10,2013-04-19 23:52:00,
2013-04-19 19:07:00,51.1,39.0,29.97,NW,313,6.0,-999.0,64,-99.99,,,1.14,weatherlink.com 1.10,2013-04-20 00:07:00,
2013-04-19 19:22:00,50.5,39.0,29.98,NW,308,3.0,-999.0,66,-99.99,,,1.14,weatherlink.com 1.10,2013-04-20 00:22:00,
2013-04-19 19:38:00,50.0,40.0,30.00,NW,305,4.0,-999.0,69,-99.99,,,1.14,weatherlink.com 1.10,2013-04-20 00:38:00,
2013-04-19 19:52:00,49.5,39.0,30.00,NW,316,5.0,-999.0,68,-99.99,,,1.14,weatherlink.com 1.10,2013-04-20 00:52:00,
2013-04-19 20:07:00,49.3,39.0,30.01,West,276,7.0,-999.0,69,-99.99,,,1.14,weatherlink.com 1.10,2013-04-20 01:07:00,
2013-04-19 20:22:00,48.8,39.0,30.03,NW,321,5.0,-999.0,69,-99.99,,,1.14,weatherlink.com 1.10,2013-04-20 01:22:00,
2013-04-19 20:37:00,48.4,39.0,30.04,NW,306,10.0,-999.0,70,-99.99,,,1.14,weatherlink.com 1.10,2013-04-20 01:37:00,
2013-04-19 20:52:00,48.0,39.0,30.05,NW,311,9.0,-999.0,71,-99.99,,,1.14,weatherlink.com 1.10,2013-04-20 01:52:00,
2013-04-19 21:07:00,47.8,38.0,30.06,WNW,293,0.0,-999.0,69,-99.99,,,1.14,weatherlink.com 1.10,2013-04-20 02:07:00,
2013-04-19 21:22:00,47.1,38.0,30.07,WNW,294,4.0,-999.0,70,-99.99,,,1.14,weatherlink.com 1.10,2013-04-20 02:22:00,
2013-04-19 21:37:00,47.1,37.0,30.08,WNW,302,3.0,-999.0,69,-99.99,,,1.14,weatherlink.com 1.10,2013-04-20 02:37:00,
2013-04-19 21:52:00,46.6,37.0,30.09,NW,314,9.0,-999.0,69,-99.99,,,1.14,weatherlink.com 1.10,2013-04-20 02:52:00,
2013-04-19 22:07:00,46.3,37.0,30.09,NW,312,9.0,-999.0,69,-99.99,,,1.14,weatherlink.com 1.10,2013-04-20 03:07:00,
2013-04-19 22:23:00,46.4,36.0,30.09,NW,321,7.0,-999.0,67,-99.99,,,1.14,weatherlink.com 1.10,2013-04-20 03:23:00,
2013-04-19 22:37:00,46.0,36.0,30.10,NNW,328,6.0,-999.0,68,-99.99,,,1.14,weatherlink.com 1.10,2013-04-20 03:37:00,
2013-04-19 22:52:00,45.7,36.0,30.11,NW,315,6.0,-999.0,68,-99.99,,,1.14,weatherlink.com 1.10,2013-04-20 03:52:00,
2013-04-19 23:08:00,45.5,36.0,30.11,NW,319,7.0,-999.0,70,-99.99,,,1.14,weatherlink.com 1.10,2013-04-20 04:08:00,
2013-04-19 23:22:00,45.1,36.0,30.11,North,360,4.0,-999.0,70,-99.99,,,1.14,weatherlink.com 1.10,2013-04-20 04:22:00,
2013-04-19 23:37:00,44.5,36.0,30.11,NW,315,5.0,-999.0,72,-99.99,,,1.14,weatherlink.com 1.10,2013-04-20 04:37:00,
2013-04-19 23:52:00,44.7,36.0,30.12,North,351,4.0,-999.0,71,-99.99,,,1.14,weatherlink.com 1.10,2013-04-20 04:52:00,